createdAt,value
2018-09-15T00:00:44.039Z,15.65
2018-09-15T00:03:12.624Z,15.63
2018-09-15T00:05:40.871Z,15.64
2018-09-15T00:08:08.987Z,15.76
2018-09-15T00:10:38.073Z,15.77
2018-09-15T00:13:07.248Z,15.79
2018-09-15T00:15:35.684Z,15.85
2018-09-15T00:18:06.376Z,15.88
2018-09-15T00:20:35.361Z,15.91
2018-09-15T00:23:03.775Z,15.96
2018-09-15T00:25:32.066Z,15.96
2018-09-15T00:28:00.821Z,15.95
2018-09-15T00:30:29.269Z,15.98
2018-09-15T00:32:57.848Z,16.02
2018-09-15T00:35:26.696Z,16.00
2018-09-15T00:37:54.874Z,15.95
2018-09-15T00:40:23.570Z,15.93
2018-09-15T00:42:52.284Z,15.90
2018-09-15T00:45:20.400Z,15.90
2018-09-15T00:47:49.104Z,15.89
2018-09-15T00:50:17.597Z,15.91
2018-09-15T00:52:45.888Z,15.97
2018-09-15T00:55:14.616Z,16.05
2018-09-15T00:57:43.363Z,15.99
2018-09-15T01:00:12.028Z,15.96
2018-09-15T01:02:40.659Z,16.01
2018-09-15T01:05:09.023Z,16.02
2018-09-15T01:07:37.167Z,15.97
2018-09-15T01:10:05.860Z,15.90
2018-09-15T01:12:34.512Z,15.78
2018-09-15T01:15:03.425Z,15.64
2018-09-15T01:17:31.873Z,15.55
2018-09-15T01:20:00.665Z,15.49
2018-09-15T01:22:28.909Z,15.43
2018-09-15T01:24:57.400Z,15.35
2018-09-15T01:27:25.519Z,15.32
2018-09-15T01:29:53.903Z,15.31
2018-09-15T01:32:22.398Z,15.28
2018-09-15T01:34:50.496Z,15.24
2018-09-15T01:37:19.240Z,15.21
2018-09-15T01:39:47.668Z,15.19
2018-09-15T01:42:16.057Z,15.23
2018-09-15T01:44:44.479Z,15.25
2018-09-15T01:47:12.900Z,15.30
2018-09-15T01:49:41.324Z,15.38
2018-09-15T01:52:10.031Z,15.46
2018-09-15T01:54:38.716Z,15.50
2018-09-15T01:57:07.835Z,15.55
2018-09-15T01:59:36.449Z,15.55
2018-09-15T02:02:05.112Z,15.59
2018-09-15T02:04:33.736Z,15.61
2018-09-15T02:07:02.574Z,15.69
2018-09-15T02:09:31.305Z,15.76
2018-09-15T02:11:59.811Z,15.80
2018-09-15T02:14:28.440Z,15.69
2018-09-15T02:16:57.667Z,15.52
2018-09-15T02:19:26.679Z,15.40
2018-09-15T02:21:55.109Z,15.34
2018-09-15T02:24:23.732Z,15.28
2018-09-15T02:26:52.080Z,15.32
2018-09-15T02:29:20.185Z,15.35
2018-09-15T02:31:48.809Z,15.39
2018-09-15T02:34:17.101Z,15.48
2018-09-15T02:36:45.183Z,15.52
2018-09-15T02:39:13.948Z,15.57
2018-09-15T02:41:42.477Z,15.54
2018-09-15T02:44:11.092Z,15.50
2018-09-15T02:46:39.377Z,15.46
2018-09-15T02:49:07.816Z,15.48
2018-09-15T02:51:36.224Z,15.55
2018-09-15T02:54:04.824Z,15.67
2018-09-15T02:56:33.524Z,15.76
2018-09-15T02:59:01.627Z,15.82
2018-09-15T03:01:30.552Z,15.86
2018-09-15T03:03:59.239Z,15.91
2018-09-15T03:06:27.901Z,15.94
2018-09-15T03:08:58.160Z,15.95
2018-09-15T03:11:27.036Z,15.95
2018-09-15T03:13:55.228Z,15.87
2018-09-15T03:16:23.336Z,15.77
2018-09-15T03:18:51.859Z,15.61
2018-09-15T03:21:20.571Z,15.49
2018-09-15T03:23:48.691Z,15.39
2018-09-15T03:26:17.075Z,15.27
2018-09-15T03:28:45.314Z,15.22
2018-09-15T03:31:13.888Z,15.09
2018-09-15T03:33:42.604Z,14.92
2018-09-15T03:36:11.040Z,14.77
2018-09-15T03:38:39.286Z,14.66
2018-09-15T03:41:08.156Z,14.55
2018-09-15T03:43:36.488Z,14.46
2018-09-15T03:46:05.199Z,14.37
2018-09-15T03:48:33.335Z,14.31
2018-09-15T03:51:01.629Z,14.25
2018-09-15T03:53:30.186Z,14.15
2018-09-15T03:55:59.102Z,14.09
2018-09-15T03:58:28.512Z,14.04
2018-09-15T04:00:57.992Z,13.99
2018-09-15T04:03:26.712Z,13.94
2018-09-15T04:05:55.779Z,13.90
2018-09-15T04:08:24.488Z,13.87
2018-09-15T04:10:52.630Z,13.88
2018-09-15T04:13:21.076Z,13.93
2018-09-15T04:15:49.504Z,13.99
2018-09-15T04:18:17.711Z,13.98
2018-09-15T04:20:47.853Z,13.94
2018-09-15T04:23:17.255Z,13.91
2018-09-15T04:25:46.280Z,13.91
2018-09-15T04:28:15.228Z,13.92
2018-09-15T04:30:44.178Z,13.95
2018-09-15T04:33:14.067Z,13.93
2018-09-15T04:35:42.756Z,13.92
2018-09-15T04:38:11.680Z,13.89
2018-09-15T04:40:39.835Z,13.91
2018-09-15T04:43:08.259Z,13.86
2018-09-15T04:45:36.521Z,13.85
2018-09-15T04:48:05.108Z,13.84
2018-09-15T04:50:33.884Z,13.81
2018-09-15T04:53:02.216Z,13.79
2018-09-15T04:55:30.505Z,13.79
2018-09-15T04:57:59.228Z,13.74
2018-09-15T05:00:27.956Z,13.71
2018-09-15T05:02:56.386Z,13.68
2018-09-15T05:05:24.684Z,13.66
2018-09-15T05:07:53.476Z,13.68
2018-09-15T05:10:23.023Z,13.69
2018-09-15T05:12:51.215Z,13.69
2018-09-15T05:15:19.889Z,13.69
2018-09-15T05:17:48.499Z,13.63
2018-09-15T05:20:16.596Z,13.70
2018-09-15T05:22:45.035Z,13.73
2018-09-15T05:25:13.692Z,13.78
2018-09-15T05:27:42.345Z,13.82
2018-09-15T05:30:10.803Z,13.84
2018-09-15T05:32:38.911Z,13.84
2018-09-15T05:35:07.916Z,13.87
2018-09-15T05:37:36.253Z,13.93
2018-09-15T05:40:05.100Z,14.01
2018-09-15T05:42:33.561Z,14.07
2018-09-15T05:45:01.873Z,14.09
2018-09-15T05:47:30.510Z,14.14
2018-09-15T05:49:58.920Z,14.19
2018-09-15T05:52:27.776Z,14.27
2018-09-15T05:54:56.200Z,14.34
2018-09-15T05:57:24.835Z,14.37
2018-09-15T05:59:52.924Z,14.36
2018-09-15T06:02:21.979Z,14.38
2018-09-15T06:04:50.277Z,14.43
2018-09-15T06:07:18.952Z,14.47
2018-09-15T06:09:47.436Z,14.48
2018-09-15T06:12:15.845Z,14.50
2018-09-15T06:14:44.176Z,14.49
2018-09-15T06:17:12.944Z,14.52
2018-09-15T06:19:41.376Z,14.54
2018-09-15T06:22:10.060Z,14.56
2018-09-15T06:24:38.492Z,14.60
2018-09-15T06:27:07.442Z,14.64
2018-09-15T06:29:35.715Z,14.69
2018-09-15T06:32:04.200Z,14.71
2018-09-15T06:34:32.948Z,14.72
2018-09-15T06:37:01.680Z,14.74
2018-09-15T06:39:30.541Z,14.78
2018-09-15T06:41:59.444Z,14.88
2018-09-15T06:44:27.872Z,14.93
2018-09-15T06:46:56.008Z,15.02
2018-09-15T06:49:24.448Z,15.07
2018-09-15T06:51:52.916Z,15.09
2018-09-15T06:54:21.036Z,15.07
2018-09-15T06:56:49.483Z,15.07
2018-09-15T06:59:18.448Z,15.11
2018-09-15T07:01:47.248Z,15.14
2018-09-15T07:04:15.691Z,15.15
2018-09-15T07:06:44.271Z,15.20
2018-09-15T07:09:13.867Z,15.44
2018-09-15T07:11:42.441Z,15.80
2018-09-15T07:14:11.371Z,15.90
2018-09-15T07:16:40.003Z,16.06
2018-09-15T07:19:08.569Z,16.37
2018-09-15T07:21:37.316Z,16.73
2018-09-15T07:24:05.676Z,16.95
2018-09-15T07:26:34.262Z,17.11
2018-09-15T07:29:02.404Z,17.18
2018-09-15T07:31:31.193Z,17.19
2018-09-15T07:34:00.107Z,17.14
2018-09-15T07:36:28.792Z,17.10
2018-09-15T07:38:58.812Z,17.18
2018-09-15T07:41:27.054Z,17.31
2018-09-15T07:43:55.907Z,17.44
2018-09-15T07:46:24.331Z,17.58
2018-09-15T07:48:52.776Z,17.74
2018-09-15T07:51:21.199Z,17.76
2018-09-15T07:53:50.140Z,17.72
2018-09-15T07:56:18.583Z,17.66
2018-09-15T07:58:47.304Z,17.60
2018-09-15T08:01:15.684Z,17.58
2018-09-15T08:03:45.101Z,17.58
2018-09-15T08:06:13.632Z,17.60
2018-09-15T08:08:41.927Z,17.56
2018-09-15T08:11:10.417Z,17.49
2018-09-15T08:13:39.264Z,17.49
2018-09-15T08:16:07.610Z,17.51
2018-09-15T08:18:36.016Z,17.60
2018-09-15T08:21:04.897Z,17.68
2018-09-15T08:23:33.348Z,17.83
2018-09-15T08:26:01.954Z,17.97
2018-09-15T08:28:30.247Z,18.11
2018-09-15T08:30:58.888Z,18.27
2018-09-15T08:33:27.436Z,18.32
2018-09-15T08:35:55.880Z,18.40
2018-09-15T08:38:24.393Z,18.49
2018-09-15T08:40:53.016Z,18.55
2018-09-15T08:43:21.104Z,18.52
2018-09-15T08:45:50.856Z,18.56
2018-09-15T08:48:19.170Z,18.80
2018-09-15T08:50:47.775Z,19.13
2018-09-15T08:53:16.758Z,19.36
2018-09-15T08:55:45.445Z,19.24
2018-09-15T08:58:13.883Z,19.05
2018-09-15T09:00:42.603Z,18.92
2018-09-15T09:03:11.755Z,18.84
2018-09-15T09:05:40.457Z,18.74
2018-09-15T09:08:08.895Z,18.78
2018-09-15T09:10:37.443Z,18.84
2018-09-15T09:13:06.196Z,18.83
2018-09-15T09:15:34.291Z,18.95
2018-09-15T09:18:02.491Z,19.16
2018-09-15T09:20:31.460Z,19.25
2018-09-15T09:22:59.896Z,19.31
2018-09-15T09:25:28.459Z,19.36
2018-09-15T09:27:56.764Z,19.43
2018-09-15T09:30:24.891Z,19.61
2018-09-15T09:32:53.507Z,19.61
2018-09-15T09:35:21.654Z,19.85
2018-09-15T09:37:50.220Z,20.17
2018-09-15T09:40:18.928Z,20.28
2018-09-15T09:42:47.687Z,20.17
2018-09-15T09:45:15.808Z,19.87
2018-09-15T09:47:44.210Z,19.62
2018-09-15T09:50:13.145Z,19.53
2018-09-15T09:52:41.271Z,19.68
2018-09-15T09:55:10.543Z,19.89
2018-09-15T09:57:38.891Z,20.20
2018-09-15T10:00:07.812Z,20.64
2018-09-15T10:02:36.544Z,21.16
2018-09-15T10:05:04.668Z,21.28
2018-09-15T10:07:33.096Z,21.15
2018-09-15T10:10:01.900Z,21.06
2018-09-15T10:12:30.372Z,20.98
2018-09-15T10:14:59.082Z,20.85
2018-09-15T10:17:27.720Z,20.72
2018-09-15T10:19:56.175Z,20.88
2018-09-15T10:22:24.652Z,21.13
2018-09-15T10:24:53.129Z,21.43
2018-09-15T10:27:21.442Z,21.65
2018-09-15T10:29:49.805Z,21.76
2018-09-15T10:32:19.029Z,21.82
2018-09-15T10:34:47.400Z,21.83
2018-09-15T10:37:16.140Z,21.72
2018-09-15T10:39:44.864Z,21.44
2018-09-15T10:42:14.155Z,21.19
2018-09-15T10:44:42.730Z,21.01
2018-09-15T10:47:10.848Z,20.99
2018-09-15T10:49:39.274Z,20.82
2018-09-15T10:52:08.243Z,20.72
2018-09-15T10:54:36.880Z,20.75
2018-09-15T10:57:05.589Z,20.66
2018-09-15T10:59:33.764Z,20.54
2018-09-15T11:02:02.774Z,20.50
2018-09-15T11:04:30.904Z,20.52
2018-09-15T11:06:59.376Z,20.47
2018-09-15T11:09:27.811Z,20.36
2018-09-15T11:11:56.325Z,20.14
2018-09-15T11:14:25.068Z,19.99
2018-09-15T11:16:53.428Z,19.86
2018-09-15T11:19:21.556Z,19.97
2018-09-15T11:21:50.093Z,20.21
2018-09-15T11:24:19.256Z,20.40
2018-09-15T11:26:47.616Z,20.55
2018-09-15T11:29:16.065Z,20.73
2018-09-15T11:31:44.468Z,20.84
2018-09-15T11:34:13.474Z,20.82
2018-09-15T11:36:42.071Z,20.72
2018-09-15T11:39:12.540Z,20.65
2018-09-15T11:41:40.752Z,20.66
2018-09-15T11:44:09.284Z,20.69
2018-09-15T11:46:37.877Z,20.73
2018-09-15T11:49:07.100Z,20.88
2018-09-15T11:51:36.709Z,21.04
2018-09-15T11:54:10.080Z,21.20
2018-09-15T11:56:38.858Z,21.32
2018-09-15T11:59:07.016Z,21.29
2018-09-15T12:01:35.152Z,21.24
2018-09-15T12:04:04.271Z,21.19
2018-09-15T12:06:33.279Z,21.04
2018-09-15T12:09:01.658Z,20.80
2018-09-15T12:11:29.976Z,20.63
2018-09-15T12:13:58.828Z,20.47
2018-09-15T12:16:26.941Z,20.31
2018-09-15T12:18:55.240Z,20.25
2018-09-15T12:21:23.919Z,20.18
2018-09-15T12:23:52.524Z,20.11
2018-09-15T12:26:21.200Z,20.09
2018-09-15T12:28:49.928Z,20.14
2018-09-15T12:31:18.095Z,20.23
2018-09-15T12:33:46.712Z,20.33
2018-09-15T12:36:14.876Z,20.31
2018-09-15T12:38:43.325Z,20.20
2018-09-15T12:41:12.240Z,20.13
2018-09-15T12:43:41.007Z,20.07
2018-09-15T12:46:09.108Z,20.07
2018-09-15T12:48:37.207Z,20.01
2018-09-15T12:51:05.303Z,19.95
2018-09-15T12:53:33.719Z,19.98
2018-09-15T12:56:01.952Z,19.99
2018-09-15T12:58:30.651Z,19.98
2018-09-15T13:00:59.403Z,20.00
2018-09-15T13:03:27.788Z,20.06
2018-09-15T13:05:56.412Z,19.97
2018-09-15T13:08:25.107Z,19.96
2018-09-15T13:10:53.719Z,20.04
2018-09-15T13:13:22.163Z,20.27
2018-09-15T13:15:50.765Z,20.68
2018-09-15T13:18:18.872Z,21.10
2018-09-15T13:20:46.959Z,21.53
2018-09-15T13:23:15.895Z,21.79
2018-09-15T13:25:44.359Z,22.01
2018-09-15T13:28:13.112Z,22.25
2018-09-15T13:30:41.412Z,22.60
2018-09-15T13:33:10.137Z,22.75
2018-09-15T13:35:38.597Z,22.96
2018-09-15T13:38:07.332Z,23.22
2018-09-15T13:40:36.240Z,23.32
2018-09-15T13:43:04.355Z,23.33
2018-09-15T13:45:32.776Z,23.11
2018-09-15T13:48:01.472Z,22.93
2018-09-15T13:50:29.904Z,22.92
2018-09-15T13:52:59.837Z,22.89
2018-09-15T13:55:28.469Z,22.84
2018-09-15T13:57:56.567Z,22.91
2018-09-15T14:00:24.996Z,23.03
2018-09-15T14:02:53.596Z,23.02
2018-09-15T14:05:22.020Z,22.76
2018-09-15T14:07:50.675Z,22.60
2018-09-15T14:10:19.482Z,22.54
2018-09-15T14:12:47.412Z,22.53
2018-09-15T14:15:15.708Z,22.44
2018-09-15T14:17:43.796Z,22.41
2018-09-15T14:20:12.524Z,22.45
2018-09-15T14:22:40.995Z,22.63
2018-09-15T14:25:09.779Z,22.82
2018-09-15T14:27:38.219Z,22.97
2018-09-15T14:30:07.700Z,22.98
2018-09-15T14:32:36.188Z,22.95
2018-09-15T14:35:04.515Z,23.06
2018-09-15T14:37:32.947Z,22.94
2018-09-15T14:40:02.553Z,22.76
2018-09-15T14:42:31.450Z,22.79
2018-09-15T14:45:00.319Z,22.66
2018-09-15T14:47:28.417Z,22.24
2018-09-15T14:49:56.572Z,21.83
2018-09-15T14:52:25.000Z,21.59
2018-09-15T14:54:53.563Z,21.63
2018-09-15T14:57:21.988Z,21.92
2018-09-15T14:59:50.678Z,22.05
2018-09-15T15:02:18.773Z,21.99
2018-09-15T15:04:47.672Z,21.93
2018-09-15T15:07:15.759Z,21.86
2018-09-15T15:09:44.671Z,21.77
2018-09-15T15:12:13.929Z,21.65
2018-09-15T15:14:42.700Z,21.58
2018-09-15T15:17:11.278Z,21.41
2018-09-15T15:19:39.776Z,21.28
2018-09-15T15:22:08.652Z,21.17
2018-09-15T15:24:37.616Z,20.93
2018-09-15T15:27:05.957Z,20.82
2018-09-15T15:29:34.707Z,20.75
2018-09-15T15:32:03.620Z,20.70
2018-09-15T15:34:31.772Z,20.65
2018-09-15T15:37:00.667Z,20.59
2018-09-15T15:39:28.768Z,20.42
2018-09-15T15:41:56.938Z,20.37
2018-09-15T15:44:25.412Z,20.42
2018-09-15T15:46:54.044Z,20.48
2018-09-15T15:49:22.735Z,20.42
2018-09-15T15:51:51.308Z,20.32
2018-09-15T15:54:19.841Z,20.30
2018-09-15T15:56:47.932Z,20.27
2018-09-15T15:59:16.858Z,20.22
2018-09-15T16:01:45.767Z,20.24
2018-09-15T16:04:14.361Z,20.13
2018-09-15T16:06:42.979Z,20.06
2018-09-15T16:09:12.023Z,20.06
2018-09-15T16:11:40.742Z,20.11
2018-09-15T16:14:09.343Z,20.09
2018-09-15T16:16:37.984Z,20.08
2018-09-15T16:19:06.099Z,20.08
2018-09-15T16:21:35.336Z,20.08
2018-09-15T16:24:04.283Z,20.05
2018-09-15T16:26:33.036Z,20.05
2018-09-15T16:29:01.867Z,20.04
2018-09-15T16:31:29.980Z,20.04
2018-09-15T16:33:59.424Z,20.04
2018-09-15T16:36:27.516Z,20.03
2018-09-15T16:38:55.652Z,20.03
2018-09-15T16:41:23.765Z,20.04
2018-09-15T16:43:52.072Z,20.07
2018-09-15T16:46:20.885Z,20.06
2018-09-15T16:48:49.316Z,20.07
2018-09-15T16:51:17.799Z,20.09
2018-09-15T16:53:45.890Z,20.12
2018-09-15T16:56:14.579Z,20.15
2018-09-15T16:58:43.213Z,20.16
2018-09-15T17:01:12.135Z,20.13
2018-09-15T17:03:40.877Z,20.12
2018-09-15T17:06:09.263Z,20.12
2018-09-15T17:08:37.681Z,20.14
2018-09-15T17:11:05.911Z,20.13
2018-09-15T17:13:34.576Z,20.13
2018-09-15T17:16:03.512Z,20.10
2018-09-15T17:18:31.961Z,20.12
2018-09-15T17:21:00.577Z,20.12
2018-09-15T17:23:28.673Z,20.10
2018-09-15T17:25:56.806Z,20.06
2018-09-15T17:28:25.112Z,20.03
2018-09-15T17:30:54.220Z,19.99
2018-09-15T17:33:22.553Z,19.92
2018-09-15T17:35:50.888Z,19.81
2018-09-15T17:38:18.982Z,19.77
2018-09-15T17:40:47.592Z,19.74
2018-09-15T17:43:15.885Z,19.75
2018-09-15T17:45:44.104Z,19.74
2018-09-15T17:48:13.200Z,19.74
2018-09-15T17:50:41.646Z,19.73
2018-09-15T17:53:10.260Z,19.71
2018-09-15T17:55:38.963Z,19.68
2018-09-15T17:58:07.542Z,19.66
2018-09-15T18:00:36.037Z,19.64
2018-09-15T18:03:04.169Z,19.62
2018-09-15T18:05:32.300Z,19.59
2018-09-15T18:08:00.729Z,19.59
2018-09-15T18:10:29.649Z,19.58
2018-09-15T18:12:58.124Z,19.56
2018-09-15T18:15:26.659Z,19.52
2018-09-15T18:17:54.908Z,19.46
2018-09-15T18:20:23.367Z,19.38
2018-09-15T18:22:51.824Z,19.29
2018-09-15T18:25:20.274Z,19.24
2018-09-15T18:27:48.704Z,19.17
2018-09-15T18:30:17.625Z,19.10
2018-09-15T18:32:45.910Z,19.05
2018-09-15T18:35:14.337Z,19.00
2018-09-15T18:37:43.066Z,18.94
2018-09-15T18:40:11.549Z,18.89
2018-09-15T18:42:40.124Z,18.82
2018-09-15T18:45:08.691Z,18.73
2018-09-15T18:47:37.236Z,18.65
2018-09-15T18:50:05.484Z,18.56
2018-09-15T18:52:33.824Z,18.48
2018-09-15T18:55:02.491Z,18.41
2018-09-15T18:57:31.143Z,18.36
2018-09-15T19:00:00.121Z,18.29
2018-09-15T19:02:28.390Z,18.23
2018-09-15T19:04:57.128Z,18.18
2018-09-15T19:07:25.654Z,18.14
2018-09-15T19:09:53.984Z,18.10
2018-09-15T19:12:22.802Z,18.09
2018-09-15T19:14:51.124Z,18.06
2018-09-15T19:17:19.757Z,18.03
2018-09-15T19:19:47.869Z,18.00
2018-09-15T19:22:16.462Z,17.97
2018-09-15T19:24:44.871Z,17.96
2018-09-15T19:27:13.436Z,17.95
2018-09-15T19:29:42.167Z,17.90
2018-09-15T19:32:10.972Z,17.91
2018-09-15T19:34:39.248Z,17.90
2018-09-15T19:37:07.721Z,17.92
2018-09-15T19:39:37.192Z,17.95
2018-09-15T19:42:07.397Z,18.00
2018-09-15T19:44:44.253Z,18.04
2018-09-15T19:47:13.112Z,18.08
2018-09-15T19:49:41.204Z,18.07
2018-09-15T19:52:09.679Z,18.05
2018-09-15T19:54:38.011Z,18.02
2018-09-15T19:57:06.356Z,18.01
2018-09-15T19:59:34.789Z,18.03
2018-09-15T20:02:03.813Z,18.06
2018-09-15T20:04:32.025Z,18.12
2018-09-15T20:07:00.669Z,18.24
2018-09-15T20:09:29.417Z,18.39
2018-09-15T20:11:57.873Z,18.56
2018-09-15T20:14:26.512Z,18.67
2018-09-15T20:16:54.108Z,18.73
2018-09-15T20:19:21.284Z,18.75
2018-09-15T20:21:48.459Z,18.78
2018-09-15T20:24:16.585Z,18.74
2018-09-15T20:26:45.023Z,18.69
2018-09-15T20:29:13.272Z,18.68
2018-09-15T20:31:41.701Z,18.65
2018-09-15T20:34:10.633Z,18.63
2018-09-15T20:36:39.385Z,18.63
2018-09-15T20:39:10.065Z,18.59
2018-09-15T20:41:38.550Z,18.57
2018-09-15T20:44:07.455Z,18.56
2018-09-15T20:46:35.544Z,18.57
2018-09-15T20:49:04.271Z,18.58
2018-09-15T20:51:32.892Z,18.55
2018-09-15T20:54:01.629Z,18.47
2018-09-15T20:56:29.732Z,18.41
2018-09-15T20:58:58.453Z,18.37
2018-09-15T21:01:26.576Z,18.41
2018-09-15T21:03:55.555Z,18.41
2018-09-15T21:06:23.656Z,18.42
2018-09-15T21:08:52.107Z,18.41
2018-09-15T21:11:20.767Z,18.42
2018-09-15T21:13:49.228Z,18.41
2018-09-15T21:16:17.945Z,18.41
2018-09-15T21:18:46.546Z,18.41
2018-09-15T21:21:14.944Z,18.43
2018-09-15T21:23:43.568Z,18.33
2018-09-15T21:26:11.675Z,18.22
2018-09-15T21:28:40.080Z,18.13
2018-09-15T21:31:08.429Z,18.06
2018-09-15T21:33:37.056Z,18.01
2018-09-15T21:36:05.496Z,17.97
2018-09-15T21:38:34.381Z,17.92
2018-09-15T21:41:02.652Z,17.93
2018-09-15T21:43:30.745Z,17.93
2018-09-15T21:46:00.247Z,17.86
2018-09-15T21:48:28.540Z,17.89
2018-09-15T21:50:56.969Z,17.85
2018-09-15T21:53:25.346Z,17.74
2018-09-15T21:55:53.932Z,17.79
2018-09-15T21:58:22.197Z,17.75
2018-09-15T22:00:54.684Z,17.73
2018-09-15T22:03:23.184Z,17.68
2018-09-15T22:05:51.707Z,17.63
2018-09-15T22:08:20.456Z,17.57
2018-09-15T22:10:49.201Z,17.54
2018-09-15T22:13:18.160Z,17.50
2018-09-15T22:15:46.996Z,17.44
2018-09-15T22:18:15.534Z,17.41
2018-09-15T22:20:43.841Z,17.39
2018-09-15T22:23:12.555Z,17.38
2018-09-15T22:25:41.007Z,17.36
2018-09-15T22:28:09.585Z,17.31
2018-09-15T22:30:38.040Z,17.26
2018-09-15T22:33:06.468Z,17.20
2018-09-15T22:35:34.920Z,17.10
2018-09-15T22:38:03.623Z,17.01
2018-09-15T22:40:31.728Z,16.96
2018-09-15T22:43:00.628Z,16.97
2018-09-15T22:45:29.061Z,16.98
2018-09-15T22:47:57.396Z,17.02
2018-09-15T22:50:25.591Z,17.03
2018-09-15T22:52:54.014Z,17.00
2018-09-15T22:55:22.648Z,16.94
2018-09-15T22:57:50.756Z,16.95
2018-09-15T23:00:18.914Z,16.95
2018-09-15T23:02:47.307Z,16.93
2018-09-15T23:05:15.657Z,16.89
2018-09-15T23:07:44.092Z,16.89
2018-09-15T23:10:12.760Z,16.87
2018-09-15T23:12:41.248Z,16.85
2018-09-15T23:15:09.624Z,16.77
2018-09-15T23:17:38.068Z,16.61
2018-09-15T23:20:07.601Z,16.53
2018-09-15T23:22:35.717Z,16.50
2018-09-15T23:25:04.660Z,16.52
2018-09-15T23:27:32.760Z,16.54
2018-09-15T23:30:00.886Z,16.53
2018-09-15T23:32:29.405Z,16.47
2018-09-15T23:34:57.883Z,16.39
2018-09-15T23:37:26.791Z,16.37
2018-09-15T23:39:54.885Z,16.39
2018-09-15T23:42:23.327Z,16.43
2018-09-15T23:44:51.960Z,16.44
2018-09-15T23:47:20.113Z,16.46
2018-09-15T23:49:48.496Z,16.49
2018-09-15T23:52:17.244Z,16.51
2018-09-15T23:54:45.954Z,16.45
2018-09-15T23:57:14.493Z,16.44
2018-09-15T23:59:42.647Z,16.49
